Terminal Aerodrome Forecast
Issued by NWS Cleveland, OH

Home | Current Version | Previous Version | Text Only | Print | Product List | Glossary On
Versions: 1 2 3 4 5 6 7 8 9 10 11 12 13 14 15 16 17
148
FTUS41 KCLE 251155 AAA
TAFCAK
TAF AMD
KCAK 251155Z 2512/2612 22007KT 5SM BR SCT200
     FM251300 23008KT 6SM HZ BKN200
     FM251500 24010KT P6SM VCSH BKN045
     FM252000 26008KT P6SM SCT040 BKN150
     FM260700 30003KT 6SM BR SKC
      TEMPO 2609/2612 3SM BR=

USA.gov is the U.S. government's official web portal to all federal, state and local government web resources and services.